sensor_id;sensor_type;location;lat;lon;timestamp;pressure;altitude;pressure_sealevel;temperature;humidity
10946;BME280;5525;42.648;23.368;2022-08-19T00:01:24;94380.25;;;20.64;88.23
10946;BME280;5525;42.648;23.368;2022-08-19T00:03:51;94402.16;;;20.88;85.91
10946;BME280;5525;42.648;23.368;2022-08-19T00:06:19;94396.31;;;20.86;86.37
10946;BME280;5525;42.648;23.368;2022-08-19T00:08:46;94380.25;;;20.64;87.61
10946;BME280;5525;42.648;23.368;2022-08-19T00:11:13;94386.16;;;20.38;89.70
10946;BME280;5525;42.648;23.368;2022-08-19T00:13:40;94367.34;;;20.26;91.64
10946;BME280;5525;42.648;23.368;2022-08-19T00:16:07;94380.28;;;20.32;92.36
10946;BME280;5525;42.648;23.368;2022-08-19T00:18:34;94366.56;;;20.25;93.19
10946;BME280;5525;42.648;23.368;2022-08-19T00:21:01;94401.41;;;20.28;95.24
10946;BME280;5525;42.648;23.368;2022-08-19T00:23:31;94416.72;;;20.33;96.03
10946;BME280;5525;42.648;23.368;2022-08-19T00:26:00;94374.41;;;20.34;92.15
10946;BME280;5525;42.648;23.368;2022-08-19T00:28:27;94404.97;;;20.57;90.37
10946;BME280;5525;42.648;23.368;2022-08-19T00:30:54;94411.22;;;20.68;90.19
10946;BME280;5525;42.648;23.368;2022-08-19T00:33:21;94378.72;;;20.38;90.54
10946;BME280;5525;42.648;23.368;2022-08-19T00:35:48;94380.66;;;20.38;90.86
10946;BME280;5525;42.648;23.368;2022-08-19T00:38:14;94423.38;;;20.56;91.15
10946;BME280;5525;42.648;23.368;2022-08-19T00:40:44;94414.75;;;20.44;91.85
10946;BME280;5525;42.648;23.368;2022-08-19T00:43:12;94405.38;;;20.45;92.58
10946;BME280;5525;42.648;23.368;2022-08-19T00:45:40;94372.06;;;20.29;92.42
10946;BME280;5525;42.648;23.368;2022-08-19T00:48:09;94406.13;;;20.59;92.65
10946;BME280;5525;42.648;23.368;2022-08-19T00:50:36;94385.38;;;20.48;91.94
10946;BME280;5525;42.648;23.368;2022-08-19T00:53:06;94382.63;;;20.34;92.64
10946;BME280;5525;42.648;23.368;2022-08-19T00:55:33;94372.03;;;20.07;94.00
10946;BME280;5525;42.648;23.368;2022-08-19T00:58:04;94408.09;;;20.31;93.89
10946;BME280;5525;42.648;23.368;2022-08-19T01:00:33;94392.81;;;20.30;94.07
10946;BME280;5525;42.648;23.368;2022-08-19T01:03:02;94401.03;;;20.23;94.59
10946;BME280;5525;42.648;23.368;2022-08-19T01:05:29;94360.25;;;19.86;95.22
10946;BME280;5525;42.648;23.368;2022-08-19T01:07:59;94400.59;;;20.06;97.33
10946;BME280;5525;42.648;23.368;2022-08-19T01:10:36;94375.91;;;19.78;98.60
10946;BME280;5525;42.648;23.368;2022-08-19T01:13:07;94354.75;;;19.82;96.83
10946;BME280;5525;42.648;23.368;2022-08-19T01:15:40;94401.00;;;20.08;96.50
10946;BME280;5525;42.648;23.368;2022-08-19T01:18:10;94409.19;;;19.91;98.62
10946;BME280;5525;42.648;23.368;2022-08-19T01:20:38;94405.31;;;20.06;97.87
10946;BME280;5525;42.648;23.368;2022-08-19T01:23:07;94392.38;;;19.99;98.09
10946;BME280;5525;42.648;23.368;2022-08-19T01:25:38;94397.06;;;19.99;98.27
10946;BME280;5525;42.648;23.368;2022-08-19T01:28:15;94382.97;;;19.86;97.86
10946;BME280;5525;42.648;23.368;2022-08-19T01:30:43;94379.00;;;19.80;98.00
10946;BME280;5525;42.648;23.368;2022-08-19T01:33:13;94380.19;;;19.72;99.47
10946;BME280;5525;42.648;23.368;2022-08-19T01:35:41;94357.03;;;19.42;100.00
10946;BME280;5525;42.648;23.368;2022-08-19T01:38:19;94366.41;;;19.44;100.00
10946;BME280;5525;42.648;23.368;2022-08-19T01:40:48;94375.03;;;19.53;100.00
10946;BME280;5525;42.648;23.368;2022-08-19T01:43:15;94404.03;;;19.68;100.00
10946;BME280;5525;42.648;23.368;2022-08-19T01:45:45;94403.25;;;19.71;100.00
10946;BME280;5525;42.648;23.368;2022-08-19T01:48:14;94402.50;;;19.71;100.00
10946;BME280;5525;42.648;23.368;2022-08-19T01:50:41;94392.72;;;19.73;100.00
10946;BME280;5525;42.648;23.368;2022-08-19T01:53:11;94402.13;;;19.79;100.00
10946;BME280;5525;42.648;23.368;2022-08-19T01:55:41;94404.81;;;19.62;100.00
10946;BME280;5525;42.648;23.368;2022-08-19T01:58:11;94401.31;;;19.65;100.00
10946;BME280;5525;42.648;23.368;2022-08-19T02:00:39;94346.84;;;19.46;99.03
10946;BME280;5525;42.648;23.368;2022-08-19T02:03:06;94373.03;;;19.40;100.00
10946;BME280;5525;42.648;23.368;2022-08-19T02:05:36;94357.34;;;19.26;100.00
10946;BME280;5525;42.648;23.368;2022-08-19T02:08:04;94348.69;;;19.21;100.00
10946;BME280;5525;42.648;23.368;2022-08-19T02:10:32;94404.78;;;19.48;100.00
10946;BME280;5525;42.648;23.368;2022-08-19T02:12:59;94394.50;;;19.27;100.00
10946;BME280;5525;42.648;23.368;2022-08-19T02:15:26;94402.59;;;19.10;100.00
10946;BME280;5525;42.648;23.368;2022-08-19T02:17:53;94399.88;;;19.06;100.00
10946;BME280;5525;42.648;23.368;2022-08-19T02:20:20;94405.00;;;19.18;100.00
10946;BME280;5525;42.648;23.368;2022-08-19T02:22:47;94401.00;;;19.02;100.00
10946;BME280;5525;42.648;23.368;2022-08-19T02:25:15;94382.63;;;18.99;100.00
10946;BME280;5525;42.648;23.368;2022-08-19T02:27:43;94383.41;;;19.03;100.00
10946;BME280;5525;42.648;23.368;2022-08-19T02:30:13;94371.59;;;18.88;100.00
10946;BME280;5525;42.648;23.368;2022-08-19T02:32:41;94406.53;;;19.12;100.00
10946;BME280;5525;42.648;23.368;2022-08-19T02:35:09;94393.50;;;18.85;100.00
10946;BME280;5525;42.648;23.368;2022-08-19T02:37:36;94379.59;;;18.53;100.00
10946;BME280;5525;42.648;23.368;2022-08-19T02:40:20;94365.97;;;18.57;100.00
10946;BME280;5525;42.648;23.368;2022-08-19T02:42:48;94407.16;;;18.85;100.00
10946;BME280;5525;42.648;23.368;2022-08-19T02:45:15;94398.84;;;18.67;100.00
10946;BME280;5525;42.648;23.368;2022-08-19T02:47:41;94411.88;;;18.88;100.00
10946;BME280;5525;42.648;23.368;2022-08-19T02:50:09;94379.31;;;18.69;100.00
10946;BME280;5525;42.648;23.368;2022-08-19T02:52:36;94416.25;;;19.03;100.00
10946;BME280;5525;42.648;23.368;2022-08-19T02:55:03;94420.25;;;19.19;100.00
10946;BME280;5525;42.648;23.368;2022-08-19T02:57:31;94428.16;;;19.31;100.00
10946;BME280;5525;42.648;23.368;2022-08-19T02:59:59;94415.69;;;19.41;100.00
10946;BME280;5525;42.648;23.368;2022-08-19T03:02:26;94412.97;;;19.51;100.00
10946;BME280;5525;42.648;23.368;2022-08-19T03:04:53;94422.00;;;19.59;100.00
10946;BME280;5525;42.648;23.368;2022-08-19T03:07:20;94422.22;;;19.22;100.00
10946;BME280;5525;42.648;23.368;2022-08-19T03:09:47;94373.06;;;18.72;100.00
10946;BME280;5525;42.648;23.368;2022-08-19T03:12:14;94415.47;;;18.99;100.00
10946;BME280;5525;42.648;23.368;2022-08-19T03:14:47;94408.78;;;18.96;100.00
10946;BME280;5525;42.648;23.368;2022-08-19T03:17:15;94417.00;;;18.96;100.00
10946;BME280;5525;42.648;23.368;2022-08-19T03:19:42;94402.72;;;18.63;100.00
10946;BME280;5525;42.648;23.368;2022-08-19T03:22:09;94409.84;;;18.74;100.00
10946;BME280;5525;42.648;23.368;2022-08-19T03:24:36;94380.34;;;18.47;100.00
10946;BME280;5525;42.648;23.368;2022-08-19T03:27:03;94373.63;;;18.40;100.00
10946;BME280;5525;42.648;23.368;2022-08-19T03:29:31;94414.00;;;18.54;100.00
10946;BME280;5525;42.648;23.368;2022-08-19T03:31:59;94350.78;;;18.15;100.00
10946;BME280;5525;42.648;23.368;2022-08-19T03:34:30;94373.09;;;18.21;100.00
10946;BME280;5525;42.648;23.368;2022-08-19T03:36:59;94408.31;;;18.29;100.00
10946;BME280;5525;42.648;23.368;2022-08-19T03:39:29;94422.53;;;18.49;100.00
10946;BME280;5525;42.648;23.368;2022-08-19T03:41:56;94428.81;;;18.53;100.00
10946;BME280;5525;42.648;23.368;2022-08-19T03:44:25;94421.09;;;18.66;100.00
10946;BME280;5525;42.648;23.368;2022-08-19T03:46:55;94364.00;;;18.10;100.00
10946;BME280;5525;42.648;23.368;2022-08-19T03:49:24;94426.91;;;18.61;100.00
10946;BME280;5525;42.648;23.368;2022-08-19T03:51:55;94442.53;;;18.57;100.00
10946;BME280;5525;42.648;23.368;2022-08-19T03:54:23;94392.66;;;18.30;100.00
10946;BME280;5525;42.648;23.368;2022-08-19T03:56:52;94426.66;;;18.80;100.00
10946;BME280;5525;42.648;23.368;2022-08-19T03:59:22;94439.97;;;18.81;100.00
10946;BME280;5525;42.648;23.368;2022-08-19T04:01:51;94445.13;;;18.93;100.00
10946;BME280;5525;42.648;23.368;2022-08-19T04:04:18;94405.06;;;18.64;100.00
10946;BME280;5525;42.648;23.368;2022-08-19T04:06:44;94443.19;;;18.94;100.00
10946;BME280;5525;42.648;23.368;2022-08-19T04:09:14;94453.75;;;18.95;100.00
10946;BME280;5525;42.648;23.368;2022-08-19T04:11:43;94439.16;;;18.77;100.00
10946;BME280;5525;42.648;23.368;2022-08-19T04:14:12;94458.38;;;18.88;100.00
10946;BME280;5525;42.648;23.368;2022-08-19T04:16:39;94456.88;;;18.97;100.00
10946;BME280;5525;42.648;23.368;2022-08-19T04:19:06;94450.63;;;18.97;100.00
10946;BME280;5525;42.648;23.368;2022-08-19T04:21:33;94459.34;;;19.16;100.00
10946;BME280;5525;42.648;23.368;2022-08-19T04:24:01;94432.66;;;19.03;100.00
10946;BME280;5525;42.648;23.368;2022-08-19T04:26:33;94461.84;;;19.42;100.00
10946;BME280;5525;42.648;23.368;2022-08-19T04:29:03;94467.81;;;19.62;100.00
10946;BME280;5525;42.648;23.368;2022-08-19T04:31:32;94425.53;;;19.52;100.00
10946;BME280;5525;42.648;23.368;2022-08-19T04:34:03;94448.28;;;19.70;100.00
10946;BME280;5525;42.648;23.368;2022-08-19T04:36:32;94439.72;;;19.89;100.00
10946;BME280;5525;42.648;23.368;2022-08-19T04:39:02;94454.72;;;20.73;100.00
10946;BME280;5525;42.648;23.368;2022-08-19T04:41:31;94434.09;;;21.83;89.87
10946;BME280;5525;42.648;23.368;2022-08-19T04:44:15;94438.69;;;23.50;74.20
10946;BME280;5525;42.648;23.368;2022-08-19T04:46:43;94455.84;;;24.54;65.10
10946;BME280;5525;42.648;23.368;2022-08-19T04:49:10;94466.28;;;24.70;62.85
10946;BME280;5525;42.648;23.368;2022-08-19T04:51:40;94405.31;;;25.07;57.46
10946;BME280;5525;42.648;23.368;2022-08-19T04:54:07;94465.03;;;25.86;55.41
10946;BME280;5525;42.648;23.368;2022-08-19T04:56:35;94467.94;;;26.54;52.92
10946;BME280;5525;42.648;23.368;2022-08-19T04:59:02;94428.50;;;26.14;53.66
10946;BME280;5525;42.648;23.368;2022-08-19T05:01:31;94437.28;;;26.65;50.94
10946;BME280;5525;42.648;23.368;2022-08-19T05:03:58;94466.03;;;26.71;50.44
10946;BME280;5525;42.648;23.368;2022-08-19T05:06:26;94479.56;;;26.49;50.94
10946;BME280;5525;42.648;23.368;2022-08-19T05:08:56;94412.09;;;26.75;48.29
10946;BME280;5525;42.648;23.368;2022-08-19T05:11:25;94487.28;;;27.86;45.87
10946;BME280;5525;42.648;23.368;2022-08-19T05:13:53;94481.97;;;27.47;46.27
10946;BME280;5525;42.648;23.368;2022-08-19T05:16:21;94478.16;;;28.68;43.92
10946;BME280;5525;42.648;23.368;2022-08-19T05:18:49;94445.16;;;28.70;42.90
10946;BME280;5525;42.648;23.368;2022-08-19T05:21:34;94470.88;;;29.71;40.80
10946;BME280;5525;42.648;23.368;2022-08-19T05:24:21;94485.19;;;30.68;38.01
10946;BME280;5525;42.648;23.368;2022-08-19T05:26:50;94491.88;;;31.32;37.06
10946;BME280;5525;42.648;23.368;2022-08-19T05:29:20;94464.97;;;31.16;36.88
10946;BME280;5525;42.648;23.368;2022-08-19T05:31:48;94459.84;;;31.14;37.40
10946;BME280;5525;42.648;23.368;2022-08-19T05:34:16;94486.66;;;31.70;36.16
10946;BME280;5525;42.648;23.368;2022-08-19T05:36:44;94443.44;;;31.17;36.05
10946;BME280;5525;42.648;23.368;2022-08-19T05:39:14;94497.34;;;32.80;33.95
10946;BME280;5525;42.648;23.368;2022-08-19T05:41:42;94494.84;;;32.82;33.93
10946;BME280;5525;42.648;23.368;2022-08-19T05:44:09;94496.19;;;32.53;34.50
10946;BME280;5525;42.648;23.368;2022-08-19T05:46:39;94488.16;;;33.30;33.21
10946;BME280;5525;42.648;23.368;2022-08-19T05:49:06;94500.00;;;33.25;32.70
10946;BME280;5525;42.648;23.368;2022-08-19T05:51:35;94491.97;;;32.58;34.18
10946;BME280;5525;42.648;23.368;2022-08-19T05:54:04;94499.53;;;33.26;33.04
10946;BME280;5525;42.648;23.368;2022-08-19T05:56:33;94502.59;;;35.13;29.97
10946;BME280;5525;42.648;23.368;2022-08-19T05:59:02;94491.91;;;36.21;28.46
10946;BME280;5525;42.648;23.368;2022-08-19T06:01:29;94508.78;;;37.44;26.60
10946;BME280;5525;42.648;23.368;2022-08-19T06:03:57;94508.50;;;37.78;26.23
10946;BME280;5525;42.648;23.368;2022-08-19T06:06:25;94511.66;;;38.44;25.47
10946;BME280;5525;42.648;23.368;2022-08-19T06:08:51;94493.31;;;38.88;24.40
10946;BME280;5525;42.648;23.368;2022-08-19T06:11:20;94513.09;;;38.88;24.48
10946;BME280;5525;42.648;23.368;2022-08-19T06:13:51;94516.22;;;39.89;23.34
10946;BME280;5525;42.648;23.368;2022-08-19T06:16:19;94521.31;;;40.75;21.72
10946;BME280;5525;42.648;23.368;2022-08-19T06:18:49;94527.09;;;40.53;22.02
10946;BME280;5525;42.648;23.368;2022-08-19T06:21:19;94512.00;;;40.23;22.52
10946;BME280;5525;42.648;23.368;2022-08-19T06:23:46;94511.38;;;41.04;21.82
10946;BME280;5525;42.648;23.368;2022-08-19T06:26:14;94524.78;;;42.22;20.62
10946;BME280;5525;42.648;23.368;2022-08-19T06:28:42;94508.41;;;41.85;21.55
10946;BME280;5525;42.648;23.368;2022-08-19T06:31:12;94525.63;;;43.02;19.76
10946;BME280;5525;42.648;23.368;2022-08-19T06:33:40;94512.50;;;43.17;19.38
10946;BME280;5525;42.648;23.368;2022-08-19T06:36:15;94510.97;;;42.55;20.11
10946;BME280;5525;42.648;23.368;2022-08-19T06:38:44;94490.34;;;43.61;19.43
10946;BME280;5525;42.648;23.368;2022-08-19T06:41:11;94463.19;;;42.96;19.51
10946;BME280;5525;42.648;23.368;2022-08-19T06:43:38;94515.88;;;43.48;19.14
10946;BME280;5525;42.648;23.368;2022-08-19T06:46:11;94519.25;;;43.46;19.11
10946;BME280;5525;42.648;23.368;2022-08-19T06:48:38;94471.16;;;43.48;18.77
10946;BME280;5525;42.648;23.368;2022-08-19T06:51:06;94506.25;;;43.82;18.77
10946;BME280;5525;42.648;23.368;2022-08-19T06:53:33;94520.53;;;44.87;18.30
10946;BME280;5525;42.648;23.368;2022-08-19T06:56:02;94519.44;;;44.90;18.53
10946;BME280;5525;42.648;23.368;2022-08-19T06:58:30;94518.91;;;43.18;19.38
10946;BME280;5525;42.648;23.368;2022-08-19T07:00:59;94523.31;;;44.40;18.64
10946;BME280;5525;42.648;23.368;2022-08-19T07:03:29;94528.19;;;45.05;18.21
10946;BME280;5525;42.648;23.368;2022-08-19T07:05:58;94533.22;;;45.12;17.73
10946;BME280;5525;42.648;23.368;2022-08-19T07:21:37;94531.06;;;46.00;17.26
10946;BME280;5525;42.648;23.368;2022-08-19T07:24:05;94538.72;;;46.54;16.60
10946;BME280;5525;42.648;23.368;2022-08-19T07:26:37;94534.19;;;46.09;16.74
10946;BME280;5525;42.648;23.368;2022-08-19T07:29:10;94543.31;;;47.43;15.74
10946;BME280;5525;42.648;23.368;2022-08-19T07:31:37;94536.47;;;47.53;15.74
10946;BME280;5525;42.648;23.368;2022-08-19T07:34:07;94529.78;;;46.57;16.52
10946;BME280;5525;42.648;23.368;2022-08-19T07:36:38;94536.81;;;47.27;15.89
10946;BME280;5525;42.648;23.368;2022-08-19T07:39:10;94533.34;;;48.02;15.62
10946;BME280;5525;42.648;23.368;2022-08-19T07:41:37;94512.19;;;46.81;15.85
10946;BME280;5525;42.648;23.368;2022-08-19T07:44:06;94516.34;;;46.45;16.49
10946;BME280;5525;42.648;23.368;2022-08-19T07:46:36;94519.50;;;46.05;16.49
10946;BME280;5525;42.648;23.368;2022-08-19T07:49:04;94509.25;;;44.16;18.14
10946;BME280;5525;42.648;23.368;2022-08-19T07:51:33;94512.38;;;43.86;18.22
10946;BME280;5525;42.648;23.368;2022-08-19T07:54:02;94513.41;;;45.27;17.72
10946;BME280;5525;42.648;23.368;2022-08-19T07:56:30;94525.34;;;45.05;17.61
10946;BME280;5525;42.648;23.368;2022-08-19T07:58:57;94517.56;;;45.80;16.93
10946;BME280;5525;42.648;23.368;2022-08-19T08:01:25;94487.31;;;46.97;16.02
10946;BME280;5525;42.648;23.368;2022-08-19T08:03:57;94521.22;;;48.79;15.05
10946;BME280;5525;42.648;23.368;2022-08-19T08:06:41;94519.19;;;46.73;16.10
10946;BME280;5525;42.648;23.368;2022-08-19T08:09:33;94513.25;;;46.99;16.21
10946;BME280;5525;42.648;23.368;2022-08-19T08:12:09;94533.22;;;48.92;14.70
10946;BME280;5525;42.648;23.368;2022-08-19T08:14:39;94516.13;;;48.62;14.50
10946;BME280;5525;42.648;23.368;2022-08-19T08:17:08;94514.44;;;46.75;15.83
10946;BME280;5525;42.648;23.368;2022-08-19T08:19:36;94501.59;;;46.05;16.58
10946;BME280;5525;42.648;23.368;2022-08-19T08:22:05;94511.13;;;48.55;14.41
10946;BME280;5525;42.648;23.368;2022-08-19T08:24:34;94521.66;;;49.87;13.65
10946;BME280;5525;42.648;23.368;2022-08-19T08:27:02;94493.28;;;49.59;14.05
10946;BME280;5525;42.648;23.368;2022-08-19T08:29:30;94503.69;;;51.74;12.46
10946;BME280;5525;42.648;23.368;2022-08-19T08:31:57;94499.06;;;48.72;14.22
10946;BME280;5525;42.648;23.368;2022-08-19T08:34:24;94493.63;;;47.84;15.01
10946;BME280;5525;42.648;23.368;2022-08-19T08:36:51;94505.44;;;50.65;13.22
10946;BME280;5525;42.648;23.368;2022-08-19T08:39:20;94513.91;;;51.14;12.97
10946;BME280;5525;42.648;23.368;2022-08-19T08:41:52;94469.44;;;50.22;13.56
10946;BME280;5525;42.648;23.368;2022-08-19T08:44:22;94515.78;;;51.02;12.83
10946;BME280;5525;42.648;23.368;2022-08-19T08:46:53;94509.03;;;50.66;12.94
10946;BME280;5525;42.648;23.368;2022-08-19T08:49:29;94503.75;;;50.79;12.75
10946;BME280;5525;42.648;23.368;2022-08-19T08:52:02;94468.56;;;50.88;12.77
10946;BME280;5525;42.648;23.368;2022-08-19T08:54:34;94483.13;;;46.98;13.63
10946;BME280;5525;42.648;23.368;2022-08-19T08:57:09;94490.16;;;48.45;12.40
10946;BME280;5525;42.648;23.368;2022-08-19T08:59:41;94485.56;;;48.20;13.42
10946;BME280;5525;42.648;23.368;2022-08-19T09:02:08;94456.38;;;47.91;13.07
10946;BME280;5525;42.648;23.368;2022-08-19T09:04:36;94476.81;;;49.67;11.77
10946;BME280;5525;42.648;23.368;2022-08-19T09:07:20;94488.97;;;51.79;10.93
10946;BME280;5525;42.648;23.368;2022-08-19T09:09:51;94449.91;;;51.59;10.59
10946;BME280;5525;42.648;23.368;2022-08-19T09:12:27;94449.22;;;51.15;11.58
10946;BME280;5525;42.648;23.368;2022-08-19T09:15:03;94448.94;;;51.38;11.82
10946;BME280;5525;42.648;23.368;2022-08-19T09:17:34;94479.13;;;51.73;11.12
10946;BME280;5525;42.648;23.368;2022-08-19T09:20:10;94476.72;;;48.63;12.57
10946;BME280;5525;42.648;23.368;2022-08-19T09:22:42;94468.25;;;48.80;12.72
10946;BME280;5525;42.648;23.368;2022-08-19T09:25:14;94432.91;;;47.78;12.41
10946;BME280;5525;42.648;23.368;2022-08-19T09:27:43;94455.16;;;47.19;13.29
10946;BME280;5525;42.648;23.368;2022-08-19T09:30:14;94458.44;;;48.98;12.56
10946;BME280;5525;42.648;23.368;2022-08-19T09:32:43;94454.19;;;50.37;11.28
10946;BME280;5525;42.648;23.368;2022-08-19T09:35:12;94457.84;;;51.15;10.30
10946;BME280;5525;42.648;23.368;2022-08-19T09:37:42;94447.44;;;50.00;11.16
10946;BME280;5525;42.648;23.368;2022-08-19T09:40:11;94443.66;;;49.41;11.45
10946;BME280;5525;42.648;23.368;2022-08-19T09:42:39;94443.44;;;48.67;11.64
10946;BME280;5525;42.648;23.368;2022-08-19T09:45:10;94453.88;;;48.25;11.82
10946;BME280;5525;42.648;23.368;2022-08-19T09:47:37;94447.81;;;49.16;11.30
10946;BME280;5525;42.648;23.368;2022-08-19T09:50:06;94422.44;;;47.57;12.50
10946;BME280;5525;42.648;23.368;2022-08-19T09:52:34;94445.56;;;49.71;11.16
10946;BME280;5525;42.648;23.368;2022-08-19T09:55:03;94435.13;;;49.26;11.18
10946;BME280;5525;42.648;23.368;2022-08-19T09:57:30;94438.09;;;49.92;10.79
10946;BME280;5525;42.648;23.368;2022-08-19T09:59:58;94416.94;;;50.05;10.62
10946;BME280;5525;42.648;23.368;2022-08-19T10:02:26;94424.53;;;49.68;10.75
10946;BME280;5525;42.648;23.368;2022-08-19T10:04:53;94401.69;;;48.42;11.15
10946;BME280;5525;42.648;23.368;2022-08-19T10:07:37;94420.88;;;49.92;11.09
10946;BME280;5525;42.648;23.368;2022-08-19T10:10:06;94427.22;;;50.49;10.56
10946;BME280;5525;42.648;23.368;2022-08-19T10:12:35;94426.88;;;49.62;10.88
10946;BME280;5525;42.648;23.368;2022-08-19T10:15:03;94400.56;;;49.90;11.13
10946;BME280;5525;42.648;23.368;2022-08-19T10:17:33;94411.34;;;48.69;11.55
10946;BME280;5525;42.648;23.368;2022-08-19T10:20:01;94421.88;;;48.59;11.58
10946;BME280;5525;42.648;23.368;2022-08-19T10:22:30;94415.72;;;49.91;11.14
10946;BME280;5525;42.648;23.368;2022-08-19T10:24:57;94406.47;;;48.86;11.44
10946;BME280;5525;42.648;23.368;2022-08-19T10:27:24;94408.88;;;49.05;11.44
10946;BME280;5525;42.648;23.368;2022-08-19T10:29:51;94405.34;;;48.42;11.89
10946;BME280;5525;42.648;23.368;2022-08-19T10:32:18;94405.13;;;48.87;11.66
10946;BME280;5525;42.648;23.368;2022-08-19T10:34:48;94406.00;;;49.86;11.22
10946;BME280;5525;42.648;23.368;2022-08-19T10:37:17;94349.00;;;48.37;11.82
10946;BME280;5525;42.648;23.368;2022-08-19T10:39:47;94340.84;;;43.34;15.10
10946;BME280;5525;42.648;23.368;2022-08-19T10:42:14;94361.28;;;45.45;13.93
10946;BME280;5525;42.648;23.368;2022-08-19T10:44:44;94352.75;;;47.78;12.10
10946;BME280;5525;42.648;23.368;2022-08-19T10:47:12;94354.78;;;48.69;11.99
10946;BME280;5525;42.648;23.368;2022-08-19T10:49:40;94387.78;;;50.77;10.63
10946;BME280;5525;42.648;23.368;2022-08-19T10:52:24;94387.50;;;47.67;12.24
10946;BME280;5525;42.648;23.368;2022-08-19T10:55:06;94396.66;;;49.29;11.15
10946;BME280;5525;42.648;23.368;2022-08-19T10:57:50;94362.75;;;49.60;11.15
10946;BME280;5525;42.648;23.368;2022-08-19T11:00:18;94394.81;;;49.49;11.21
10946;BME280;5525;42.648;23.368;2022-08-19T11:02:46;94366.09;;;49.24;11.28
10946;BME280;5525;42.648;23.368;2022-08-19T11:05:15;94344.69;;;49.50;11.24
10946;BME280;5525;42.648;23.368;2022-08-19T11:07:45;94331.47;;;49.71;10.93
10946;BME280;5525;42.648;23.368;2022-08-19T11:10:15;94352.94;;;50.73;10.63
10946;BME280;5525;42.648;23.368;2022-08-19T11:12:44;94382.50;;;50.83;10.65
10946;BME280;5525;42.648;23.368;2022-08-19T11:15:13;94347.28;;;49.80;10.99
10946;BME280;5525;42.648;23.368;2022-08-19T11:17:40;94367.03;;;49.27;11.38
10946;BME280;5525;42.648;23.368;2022-08-19T11:20:10;94349.97;;;46.16;13.33
10946;BME280;5525;42.648;23.368;2022-08-19T11:22:38;94365.34;;;47.44;12.43
10946;BME280;5525;42.648;23.368;2022-08-19T11:25:09;94380.50;;;49.41;10.95
10946;BME280;5525;42.648;23.368;2022-08-19T11:27:38;94368.03;;;49.22;11.30
10946;BME280;5525;42.648;23.368;2022-08-19T11:30:08;94360.69;;;48.71;11.85
10946;BME280;5525;42.648;23.368;2022-08-19T11:32:35;94337.63;;;48.62;11.91
10946;BME280;5525;42.648;23.368;2022-08-19T11:35:03;94337.81;;;45.59;13.84
10946;BME280;5525;42.648;23.368;2022-08-19T11:37:30;94319.78;;;45.16;14.55
10946;BME280;5525;42.648;23.368;2022-08-19T11:39:58;94306.97;;;43.88;15.03
10946;BME280;5525;42.648;23.368;2022-08-19T11:42:27;94330.38;;;43.68;15.55
10946;BME280;5525;42.648;23.368;2022-08-19T11:45:12;94333.28;;;44.95;14.69
10946;BME280;5525;42.648;23.368;2022-08-19T11:47:39;94320.50;;;45.09;14.29
10946;BME280;5525;42.648;23.368;2022-08-19T11:50:06;94315.03;;;45.18;14.03
10946;BME280;5525;42.648;23.368;2022-08-19T11:52:33;94337.72;;;44.02;15.10
10946;BME280;5525;42.648;23.368;2022-08-19T11:55:00;94326.88;;;43.22;15.93
10946;BME280;5525;42.648;23.368;2022-08-19T11:57:29;94280.19;;;42.73;16.37
10946;BME280;5525;42.648;23.368;2022-08-19T11:59:56;94327.56;;;42.47;16.60
10946;BME280;5525;42.648;23.368;2022-08-19T12:02:23;94325.84;;;42.57;16.53
10946;BME280;5525;42.648;23.368;2022-08-19T12:04:51;94307.75;;;41.67;17.37
10946;BME280;5525;42.648;23.368;2022-08-19T12:07:17;94298.53;;;42.04;16.63
10946;BME280;5525;42.648;23.368;2022-08-19T12:09:44;94298.41;;;42.28;16.84
10946;BME280;5525;42.648;23.368;2022-08-19T12:12:11;94287.69;;;41.17;17.32
10946;BME280;5525;42.648;23.368;2022-08-19T12:14:40;94296.00;;;41.09;18.10
10946;BME280;5525;42.648;23.368;2022-08-19T12:17:07;94294.94;;;40.18;18.77
10946;BME280;5525;42.648;23.368;2022-08-19T12:19:36;94296.84;;;39.42;19.02
10946;BME280;5525;42.648;23.368;2022-08-19T12:22:05;94287.22;;;38.71;20.02
10946;BME280;5525;42.648;23.368;2022-08-19T12:24:33;94283.09;;;38.44;20.23
10946;BME280;5525;42.648;23.368;2022-08-19T12:27:01;94277.72;;;38.46;20.65
10946;BME280;5525;42.648;23.368;2022-08-19T12:29:28;94266.69;;;38.26;20.08
10946;BME280;5525;42.648;23.368;2022-08-19T12:31:57;94226.28;;;37.43;21.29
10946;BME280;5525;42.648;23.368;2022-08-19T12:34:29;94270.16;;;37.66;21.02
10946;BME280;5525;42.648;23.368;2022-08-19T12:36:57;94264.19;;;37.48;21.14
10946;BME280;5525;42.648;23.368;2022-08-19T12:39:24;94237.91;;;37.08;21.01
10946;BME280;5525;42.648;23.368;2022-08-19T12:41:51;94199.91;;;36.82;21.47
10946;BME280;5525;42.648;23.368;2022-08-19T12:44:19;94243.25;;;37.06;21.28
10946;BME280;5525;42.648;23.368;2022-08-19T12:46:46;94231.31;;;36.75;22.13
10946;BME280;5525;42.648;23.368;2022-08-19T12:49:15;94227.94;;;36.71;21.99
10946;BME280;5525;42.648;23.368;2022-08-19T12:51:42;94217.47;;;36.71;21.94
10946;BME280;5525;42.648;23.368;2022-08-19T12:54:09;94255.22;;;36.54;22.28
10946;BME280;5525;42.648;23.368;2022-08-19T12:56:36;94249.38;;;36.63;22.26
10946;BME280;5525;42.648;23.368;2022-08-19T12:59:04;94248.47;;;36.40;22.74
10946;BME280;5525;42.648;23.368;2022-08-19T13:01:33;94210.91;;;36.12;22.88
10946;BME280;5525;42.648;23.368;2022-08-19T13:04:00;94252.47;;;36.65;22.73
10946;BME280;5525;42.648;23.368;2022-08-19T13:06:29;94242.13;;;36.82;22.22
10946;BME280;5525;42.648;23.368;2022-08-19T13:08:56;94237.38;;;36.62;21.98
10946;BME280;5525;42.648;23.368;2022-08-19T13:11:23;94246.69;;;36.12;23.01
10946;BME280;5525;42.648;23.368;2022-08-19T13:13:52;94230.94;;;36.25;22.76
10946;BME280;5525;42.648;23.368;2022-08-19T13:16:20;94232.63;;;36.12;23.91
10946;BME280;5525;42.648;23.368;2022-08-19T13:18:47;94232.03;;;36.02;23.42
10946;BME280;5525;42.648;23.368;2022-08-19T13:21:18;94216.50;;;36.07;22.83